createdAt,value
2022-08-08T00:00:54.153Z,52.39
2022-08-08T00:03:28.245Z,52.30
2022-08-08T00:06:05.881Z,52.70
2022-08-08T00:09:00.442Z,52.64
2022-08-08T00:11:47.034Z,52.86
2022-08-08T00:14:59.699Z,52.29
2022-08-08T00:18:01.884Z,52.79
2022-08-08T00:20:51.969Z,53.04
2022-08-08T00:23:42.925Z,52.99
2022-08-08T00:26:21.725Z,53.11
2022-08-08T00:29:01.660Z,52.84
2022-08-08T00:32:21.005Z,52.95
2022-08-08T00:35:08.217Z,52.84
2022-08-08T00:38:16.705Z,53.27
2022-08-08T00:41:16.071Z,53.33
2022-08-08T00:44:13.947Z,53.51
2022-08-08T00:47:23.790Z,54.03
2022-08-08T00:49:59.887Z,54.24
2022-08-08T00:52:55.010Z,54.19
2022-08-08T00:55:53.041Z,54.81
2022-08-08T00:58:30.816Z,54.50
2022-08-08T01:01:11.409Z,54.88
2022-08-08T01:04:08.394Z,54.62
2022-08-08T01:07:17.942Z,55.27
2022-08-08T01:10:27.402Z,55.47
2022-08-08T01:13:16.567Z,55.87
2022-08-08T01:16:27.832Z,56.07
2022-08-08T01:19:42.384Z,56.01
2022-08-08T01:22:32.461Z,55.92
2022-08-08T01:25:40.741Z,55.90
2022-08-08T01:28:59.117Z,55.78
2022-08-08T01:32:17.406Z,56.21
2022-08-08T01:34:58.202Z,55.99
2022-08-08T01:37:56.901Z,55.96
2022-08-08T01:41:16.076Z,56.06
2022-08-08T01:43:53.476Z,56.40
2022-08-08T01:46:47.313Z,56.42
2022-08-08T01:49:43.833Z,56.50
2022-08-08T01:53:35.314Z,56.59
2022-08-08T01:56:27.581Z,56.46
2022-08-08T01:58:39.557Z,56.68
2022-08-08T02:01:54.655Z,56.71
2022-08-08T02:04:43.548Z,56.82
2022-08-08T02:07:26.223Z,56.66
2022-08-08T02:10:45.195Z,56.60
2022-08-08T02:13:54.163Z,56.36
2022-08-08T02:16:38.862Z,56.64
2022-08-08T02:20:07.063Z,57.00
2022-08-08T02:23:05.803Z,57.40
2022-08-08T02:26:02.279Z,57.46
2022-08-08T02:28:48.186Z,57.65
2022-08-08T02:31:59.260Z,57.63
2022-08-08T02:35:10.949Z,57.65
2022-08-08T02:37:52.545Z,57.34
2022-08-08T02:40:45.179Z,57.40
2022-08-08T02:44:37.592Z,57.62
2022-08-08T02:47:04.350Z,57.80
2022-08-08T02:49:47.872Z,57.57
2022-08-08T02:52:41.967Z,57.68
2022-08-08T02:55:44.303Z,57.92
2022-08-08T02:58:51.264Z,57.87
2022-08-08T03:01:47.586Z,57.59
2022-08-08T03:05:02.374Z,57.64
2022-08-08T03:07:58.146Z,57.60
2022-08-08T03:10:54.051Z,58.23
2022-08-08T03:15:58.220Z,58.67
2022-08-08T03:16:34.502Z,58.46
2022-08-08T03:19:21.323Z,58.50
2022-08-08T03:21:58.969Z,58.66
2022-08-08T03:24:29.527Z,58.36
2022-08-08T03:27:26.942Z,58.45
2022-08-08T03:29:59.941Z,58.48
2022-08-08T03:32:57.733Z,58.49
2022-08-08T03:35:30.325Z,58.54
2022-08-08T03:38:54.776Z,58.42
2022-08-08T03:40:52.014Z,58.64
2022-08-08T03:43:20.305Z,58.89
2022-08-08T03:46:06.139Z,59.14
2022-08-08T03:49:55.128Z,59.01
2022-08-08T03:51:50.329Z,59.53
2022-08-08T03:54:41.778Z,59.44
2022-08-08T03:58:33.576Z,59.42
2022-08-08T04:00:07.956Z,59.71
2022-08-08T04:02:51.683Z,60.04
2022-08-08T04:05:22.839Z,60.06
2022-08-08T04:07:56.516Z,59.99
2022-08-08T04:10:25.673Z,60.60
2022-08-08T04:13:17.127Z,60.56
2022-08-08T04:15:54.747Z,60.74
2022-08-08T04:18:41.788Z,60.75
2022-08-08T04:21:11.857Z,61.15
2022-08-08T04:24:05.272Z,61.41
2022-08-08T04:26:35.552Z,61.15
2022-08-08T04:29:15.239Z,61.15
2022-08-08T04:31:59.658Z,60.91
2022-08-08T04:34:32.378Z,61.28
2022-08-08T04:37:11.581Z,61.50
2022-08-08T04:40:04.695Z,61.61
2022-08-08T04:42:27.973Z,61.25
2022-08-08T04:44:57.436Z,61.26
2022-08-08T04:47:25.990Z,61.36
2022-08-08T04:50:00.949Z,61.19
2022-08-08T04:52:35.280Z,61.28
2022-08-08T04:55:06.883Z,61.03
2022-08-08T04:57:34.710Z,60.53
2022-08-08T05:00:03.935Z,60.27
2022-08-08T05:02:31.864Z,60.31
2022-08-08T05:04:59.999Z,59.97
2022-08-08T05:07:38.044Z,59.76
2022-08-08T05:10:12.682Z,59.57
2022-08-08T05:12:42.979Z,59.70
2022-08-08T05:15:21.231Z,59.75
2022-08-08T05:17:54.222Z,59.44
2022-08-08T05:20:24.466Z,59.52
2022-08-08T05:22:54.136Z,59.56
2022-08-08T05:25:26.988Z,59.25
2022-08-08T05:28:08.618Z,59.42
2022-08-08T05:30:38.393Z,59.18
2022-08-08T05:33:13.979Z,59.15
2022-08-08T05:35:44.679Z,59.08
2022-08-08T05:38:30.667Z,58.83
2022-08-08T05:41:07.121Z,58.36
2022-08-08T05:43:39.318Z,58.08
2022-08-08T05:46:13.493Z,57.44
2022-08-08T05:48:49.943Z,57.26
2022-08-08T05:51:22.066Z,57.43
2022-08-08T05:54:26.205Z,56.92
2022-08-08T05:56:47.359Z,56.59
2022-08-08T05:59:53.610Z,55.53
2022-08-08T06:02:40.806Z,55.59
2022-08-08T06:05:33.841Z,54.94
2022-08-08T06:08:02.410Z,54.79
2022-08-08T06:10:33.166Z,54.80
2022-08-08T06:13:01.969Z,54.87
2022-08-08T06:15:50.040Z,54.63
2022-08-08T06:18:22.083Z,54.18
2022-08-08T06:20:55.468Z,53.94
2022-08-08T06:23:48.688Z,53.60
2022-08-08T06:26:44.986Z,53.42
2022-08-08T06:29:26.657Z,53.39
2022-08-08T06:32:10.229Z,53.19
2022-08-08T06:35:12.005Z,52.62
2022-08-08T06:37:46.095Z,52.45
2022-08-08T06:40:20.663Z,52.05
2022-08-08T06:43:03.902Z,51.15
2022-08-08T06:45:39.184Z,50.79
2022-08-08T06:48:08.616Z,50.42
2022-08-08T06:50:39.531Z,49.62
2022-08-08T06:53:14.337Z,49.49
2022-08-08T06:56:00.630Z,49.25
2022-08-08T06:58:33.040Z,49.12
2022-08-08T07:01:02.018Z,48.86
2022-08-08T07:04:39.002Z,48.34
2022-08-08T07:06:59.959Z,48.24
2022-08-08T07:09:41.691Z,48.36
2022-08-08T07:12:42.984Z,47.81
2022-08-08T07:15:31.839Z,46.97
2022-08-08T07:18:35.853Z,47.09
2022-08-08T07:21:02.256Z,47.03
2022-08-08T07:24:01.044Z,47.04
2022-08-08T07:26:32.822Z,46.70
2022-08-08T07:29:05.503Z,46.85
2022-08-08T07:31:36.589Z,45.91
2022-08-08T07:34:08.764Z,45.77
2022-08-08T07:36:41.925Z,44.75
2022-08-08T07:39:29.569Z,44.37
2022-08-08T07:42:04.198Z,44.71
2022-08-08T07:44:37.594Z,44.92
2022-08-08T07:47:10.028Z,44.13
2022-08-08T07:49:40.085Z,44.24
2022-08-08T07:52:22.849Z,44.19
2022-08-08T07:55:05.512Z,42.58
2022-08-08T07:57:49.408Z,42.66
2022-08-08T08:00:19.213Z,42.41
2022-08-08T08:03:20.497Z,41.76
2022-08-08T08:05:54.401Z,41.88
2022-08-08T08:08:30.615Z,41.88
2022-08-08T08:10:58.528Z,41.53
2022-08-08T08:13:42.656Z,41.41
2022-08-08T08:16:25.491Z,41.48
2022-08-08T08:19:22.971Z,41.27
2022-08-08T08:21:56.889Z,41.33
2022-08-08T08:24:43.050Z,41.22
2022-08-08T08:27:13.475Z,41.29
2022-08-08T08:29:43.214Z,41.32
2022-08-08T08:32:12.442Z,41.88
2022-08-08T08:34:52.525Z,41.83
2022-08-08T08:37:20.794Z,41.73
2022-08-08T08:40:00.807Z,40.98
2022-08-08T08:42:35.708Z,40.81
2022-08-08T08:45:20.770Z,40.59
2022-08-08T08:47:54.206Z,41.04
2022-08-08T08:50:33.633Z,40.87
2022-08-08T08:53:27.652Z,39.79
2022-08-08T08:56:01.439Z,39.11
2022-08-08T08:58:35.625Z,40.08
2022-08-08T09:01:10.362Z,40.02
2022-08-08T09:03:46.917Z,39.88
2022-08-08T09:06:28.734Z,39.56
2022-08-08T09:09:25.898Z,39.59
2022-08-08T09:12:10.896Z,39.27
2022-08-08T09:14:42.787Z,39.22
2022-08-08T09:17:18.754Z,39.84
2022-08-08T09:22:00.133Z,39.21
2022-08-08T09:22:35.889Z,39.08
2022-08-08T09:25:04.721Z,39.48
2022-08-08T09:27:55.830Z,38.76
2022-08-08T09:30:19.872Z,38.26
2022-08-08T09:33:13.208Z,38.29
2022-08-08T09:35:49.620Z,38.15
2022-08-08T09:38:52.916Z,38.11
2022-08-08T09:41:33.657Z,37.08
2022-08-08T09:44:37.526Z,37.30
2022-08-08T09:47:25.803Z,37.18
2022-08-08T09:50:01.771Z,37.53
2022-08-08T09:52:57.572Z,37.51
2022-08-08T09:55:51.350Z,37.21
2022-08-08T09:58:20.284Z,37.05
2022-08-08T10:00:57.469Z,37.13
2022-08-08T10:03:28.198Z,36.43
2022-08-08T10:05:58.719Z,36.21
2022-08-08T10:08:30.609Z,36.62
2022-08-08T10:11:00.706Z,36.74
2022-08-08T10:13:35.479Z,36.29
2022-08-08T10:16:05.154Z,36.18
2022-08-08T10:18:36.876Z,35.95
2022-08-08T10:21:25.229Z,35.57
2022-08-08T10:23:58.030Z,35.58
2022-08-08T10:26:57.132Z,35.17
2022-08-08T10:29:24.835Z,35.61
2022-08-08T10:32:15.862Z,35.43
2022-08-08T10:34:51.187Z,35.21
2022-08-08T10:37:34.736Z,34.82
2022-08-08T10:40:16.511Z,34.99
2022-08-08T10:42:45.419Z,34.76
2022-08-08T10:45:16.009Z,34.71
2022-08-08T10:47:48.619Z,34.16
2022-08-08T10:50:23.767Z,33.73
2022-08-08T10:52:51.404Z,33.77
2022-08-08T10:55:40.536Z,33.98
2022-08-08T10:58:09.018Z,33.95
2022-08-08T11:00:53.238Z,33.74
2022-08-08T11:04:00.752Z,33.02
2022-08-08T11:06:34.160Z,32.85
2022-08-08T11:09:15.395Z,32.97
2022-08-08T11:12:06.126Z,33.05
2022-08-08T11:14:34.744Z,33.28
2022-08-08T11:17:03.169Z,33.51
2022-08-08T11:19:33.807Z,33.52
2022-08-08T11:22:01.448Z,33.80
2022-08-08T11:24:35.812Z,34.21
2022-08-08T11:27:19.376Z,34.45
2022-08-08T11:29:58.375Z,34.63
2022-08-08T11:32:40.642Z,34.60
2022-08-08T11:35:24.493Z,34.79
2022-08-08T11:38:35.257Z,35.06
2022-08-08T11:40:44.773Z,34.60
2022-08-08T11:43:17.102Z,34.68
2022-08-08T11:46:09.105Z,34.69
2022-08-08T11:48:33.151Z,34.09
2022-08-08T11:51:00.823Z,34.14
2022-08-08T11:53:55.129Z,33.52
2022-08-08T11:56:26.239Z,33.25
2022-08-08T11:58:55.882Z,32.54
2022-08-08T12:01:32.174Z,31.99
2022-08-08T12:04:04.018Z,31.79
2022-08-08T12:06:32.867Z,31.92
2022-08-08T12:09:07.481Z,31.75
2022-08-08T12:11:39.789Z,31.60
2022-08-08T12:14:07.614Z,31.65
2022-08-08T12:16:49.388Z,31.71
2022-08-08T12:19:31.118Z,31.91
2022-08-08T12:22:09.393Z,32.03
2022-08-08T12:24:53.989Z,32.17
2022-08-08T12:27:27.077Z,31.75
2022-08-08T12:30:15.673Z,31.90
2022-08-08T12:32:48.288Z,32.33
2022-08-08T12:35:21.935Z,32.34
2022-08-08T12:38:07.852Z,32.25
2022-08-08T12:40:55.861Z,32.66
2022-08-08T12:43:31.971Z,32.52
2022-08-08T12:46:03.043Z,32.40
2022-08-08T12:48:36.892Z,32.02
2022-08-08T12:51:07.658Z,31.30
2022-08-08T12:53:42.047Z,30.96
2022-08-08T12:56:18.700Z,30.60
2022-08-08T12:58:52.155Z,30.22
2022-08-08T13:01:24.622Z,30.14
2022-08-08T13:04:24.643Z,29.62
2022-08-08T13:07:05.125Z,30.11
2022-08-08T13:10:04.061Z,30.13
2022-08-08T13:12:32.986Z,30.01
2022-08-08T13:15:03.083Z,29.52
2022-08-08T13:18:07.723Z,30.26
2022-08-08T13:20:19.964Z,30.61
2022-08-08T13:22:47.562Z,30.17
2022-08-08T13:25:21.180Z,31.18
2022-08-08T13:27:56.635Z,31.21
2022-08-08T13:30:28.622Z,30.98
2022-08-08T13:32:57.239Z,31.33
2022-08-08T13:35:38.176Z,31.08
2022-08-08T13:38:08.664Z,30.75
2022-08-08T13:40:44.645Z,29.98
2022-08-08T13:43:13.454Z,29.86
2022-08-08T13:45:43.210Z,29.45
2022-08-08T13:48:15.768Z,28.84
2022-08-08T13:50:50.809Z,28.10
2022-08-08T13:53:36.172Z,28.17
2022-08-08T13:56:11.888Z,28.07
2022-08-08T13:58:57.309Z,27.54
2022-08-08T14:01:52.918Z,27.43
2022-08-08T14:04:25.006Z,27.64
2022-08-08T14:07:01.057Z,27.53
2022-08-08T14:10:04.551Z,27.73
2022-08-08T14:12:26.307Z,28.08
2022-08-08T14:14:55.374Z,28.19
2022-08-08T14:17:57.817Z,27.90
2022-08-08T14:20:15.609Z,28.38
2022-08-08T14:23:10.279Z,28.95
2022-08-08T14:26:10.946Z,29.20
2022-08-08T14:28:40.074Z,29.92
2022-08-08T14:31:09.398Z,29.99
2022-08-08T14:33:36.747Z,30.50
2022-08-08T14:36:05.529Z,30.51
2022-08-08T14:38:51.795Z,30.53
2022-08-08T14:41:45.233Z,30.34
2022-08-08T14:44:13.990Z,30.05
2022-08-08T14:46:57.717Z,29.55
2022-08-08T14:49:51.376Z,29.32
2022-08-08T14:52:21.068Z,29.79
2022-08-08T14:54:49.319Z,29.69
2022-08-08T14:57:16.974Z,29.73
2022-08-08T14:59:51.345Z,29.18
2022-08-08T15:02:25.856Z,29.10
2022-08-08T15:05:08.170Z,29.63
2022-08-08T15:07:40.483Z,30.13
2022-08-08T15:10:09.437Z,30.10
2022-08-08T15:12:37.476Z,30.57
2022-08-08T15:15:06.729Z,30.67
2022-08-08T15:17:37.330Z,30.55
2022-08-08T15:20:07.515Z,30.83
2022-08-08T15:22:38.458Z,30.55
2022-08-08T15:25:08.726Z,30.76
2022-08-08T15:28:04.266Z,30.54
2022-08-08T15:30:32.017Z,30.64
2022-08-08T15:32:59.413Z,31.07
2022-08-08T15:35:27.416Z,31.05
2022-08-08T15:37:56.794Z,31.28
2022-08-08T15:40:23.523Z,31.24
2022-08-08T15:42:56.075Z,31.44
2022-08-08T15:45:29.915Z,31.13
2022-08-08T15:48:15.562Z,31.94
2022-08-08T15:51:01.400Z,31.51
2022-08-08T15:53:33.043Z,31.80
2022-08-08T15:56:00.169Z,32.24
2022-08-08T15:58:28.287Z,31.94
2022-08-08T16:00:58.659Z,31.69
2022-08-08T16:03:25.440Z,32.08
2022-08-08T16:06:01.681Z,32.15
2022-08-08T16:08:29.029Z,32.50
2022-08-08T16:13:20.912Z,32.69
2022-08-08T16:13:45.102Z,32.57
2022-08-08T16:16:17.942Z,33.10
2022-08-08T16:18:56.620Z,33.43
2022-08-08T16:21:27.804Z,33.30
2022-08-08T16:23:56.350Z,33.46
2022-08-08T16:26:33.900Z,33.67
2022-08-08T16:29:08.692Z,34.06
2022-08-08T16:31:37.683Z,34.21
2022-08-08T16:34:04.684Z,34.26
2022-08-08T16:36:33.680Z,33.75
2022-08-08T16:39:09.752Z,34.15
2022-08-08T16:41:51.196Z,33.96
2022-08-08T16:44:27.665Z,33.85
2022-08-08T16:47:14.593Z,34.24
2022-08-08T16:49:41.686Z,34.42
2022-08-08T16:55:00.057Z,33.95
2022-08-08T16:55:42.917Z,34.45
2022-08-08T16:58:16.154Z,34.52
2022-08-08T17:00:32.620Z,34.46
2022-08-08T17:03:01.046Z,34.71
2022-08-08T17:05:42.296Z,34.29
2022-08-08T17:08:12.074Z,34.22
2022-08-08T17:10:58.049Z,34.01
2022-08-08T17:13:27.588Z,34.39
2022-08-08T17:16:15.371Z,34.10
2022-08-08T17:18:42.426Z,34.55
2022-08-08T17:21:10.621Z,34.54
2022-08-08T17:24:00.878Z,34.35
2022-08-08T17:26:28.950Z,34.90
2022-08-08T17:28:57.110Z,35.54
2022-08-08T17:31:45.573Z,35.66
2022-08-08T17:34:53.191Z,35.99
2022-08-08T17:37:03.422Z,36.05
2022-08-08T17:40:03.439Z,36.45
2022-08-08T17:42:20.320Z,36.92
2022-08-08T17:44:49.663Z,37.00
2022-08-08T17:47:27.333Z,37.19
2022-08-08T17:50:01.418Z,37.59
2022-08-08T17:52:34.281Z,37.93
2022-08-08T17:55:05.666Z,38.60
2022-08-08T17:57:49.940Z,38.83
2022-08-08T18:00:26.211Z,39.10
2022-08-08T18:03:08.991Z,39.29
2022-08-08T18:05:49.119Z,39.57
2022-08-08T18:08:25.301Z,39.41
2022-08-08T18:11:11.787Z,39.32
2022-08-08T18:13:42.486Z,39.75
2022-08-08T18:16:10.093Z,40.14
2022-08-08T18:18:42.421Z,39.96
2022-08-08T18:21:34.595Z,40.30
2022-08-08T18:23:59.129Z,40.44
2022-08-08T18:26:29.030Z,40.56
2022-08-08T18:28:56.187Z,40.90
2022-08-08T18:31:24.869Z,41.01
2022-08-08T18:34:12.165Z,41.50
2022-08-08T18:36:41.681Z,41.78
2022-08-08T18:39:16.334Z,41.92
2022-08-08T18:41:58.245Z,42.12
2022-08-08T18:44:30.188Z,42.14
2022-08-08T18:47:00.209Z,42.26
2022-08-08T18:49:32.581Z,42.58
2022-08-08T18:52:18.307Z,42.58
2022-08-08T18:54:45.884Z,42.92
2022-08-08T18:57:31.630Z,43.00
2022-08-08T19:00:06.172Z,43.19
2022-08-08T19:02:38.739Z,43.27
2022-08-08T19:05:15.380Z,43.59
2022-08-08T19:07:51.993Z,43.47
2022-08-08T19:10:19.466Z,43.98
2022-08-08T19:12:52.994Z,43.69
2022-08-08T19:15:23.610Z,43.82
2022-08-08T19:18:33.249Z,44.05
2022-08-08T19:20:39.222Z,44.54
2022-08-08T19:23:07.693Z,44.43
2022-08-08T19:26:27.053Z,44.36
2022-08-08T19:28:23.437Z,44.85
2022-08-08T19:31:04.109Z,45.19
2022-08-08T19:33:51.568Z,44.88
2022-08-08T19:36:25.231Z,45.40
2022-08-08T19:38:54.678Z,45.20
2022-08-08T19:41:21.621Z,45.63
2022-08-08T19:44:03.374Z,45.97
2022-08-08T19:46:33.164Z,46.00
2022-08-08T19:49:01.815Z,46.04
2022-08-08T19:51:34.163Z,46.15
2022-08-08T19:54:06.411Z,46.07
2022-08-08T19:56:39.864Z,46.37
2022-08-08T19:59:09.218Z,46.68
2022-08-08T20:02:02.531Z,46.68
2022-08-08T20:04:23.956Z,46.72
2022-08-08T20:06:51.005Z,47.09
2022-08-08T20:09:22.626Z,46.91
2022-08-08T20:11:50.714Z,47.18
2022-08-08T20:14:34.655Z,47.36
2022-08-08T20:17:03.704Z,47.63
2022-08-08T20:19:33.430Z,47.73
2022-08-08T20:22:04.834Z,47.74
2022-08-08T20:24:40.124Z,47.81
2022-08-08T20:27:09.995Z,47.94
2022-08-08T20:30:00.259Z,48.18
2022-08-08T20:32:29.774Z,48.17
2022-08-08T20:35:00.996Z,48.54
2022-08-08T20:37:47.186Z,48.62
2022-08-08T20:40:17.148Z,48.75
2022-08-08T20:42:54.946Z,48.92
2022-08-08T20:45:57.484Z,49.12
2022-08-08T20:48:09.642Z,49.05
2022-08-08T20:50:36.561Z,49.51
2022-08-08T20:53:06.791Z,49.46
2022-08-08T20:55:42.972Z,49.46
2022-08-08T20:58:13.890Z,49.75
2022-08-08T21:00:50.235Z,49.84
2022-08-08T21:03:17.337Z,50.17
2022-08-08T21:05:58.894Z,50.24
2022-08-08T21:08:36.913Z,50.01
2022-08-08T21:11:13.385Z,50.16
2022-08-08T21:13:41.873Z,50.16
2022-08-08T21:16:18.252Z,50.43
2022-08-08T21:18:58.263Z,50.44
2022-08-08T21:21:40.995Z,50.60
2022-08-08T21:24:23.955Z,50.61
2022-08-08T21:26:54.191Z,50.63
2022-08-08T21:29:21.700Z,50.78
2022-08-08T21:32:19.168Z,50.55
2022-08-08T21:34:56.626Z,50.73
2022-08-08T21:37:23.425Z,50.85
2022-08-08T21:40:11.435Z,50.64
2022-08-08T21:42:39.486Z,50.67
2022-08-08T21:45:44.905Z,50.95
2022-08-08T21:48:00.772Z,51.30
2022-08-08T21:50:30.144Z,51.52
2022-08-08T21:54:30.982Z,51.71
2022-08-08T21:56:25.995Z,51.81
2022-08-08T21:58:37.379Z,51.57
2022-08-08T22:01:05.395Z,52.13
2022-08-08T22:03:50.410Z,52.28
2022-08-08T22:06:31.130Z,52.22
2022-08-08T22:08:59.703Z,52.04
2022-08-08T22:12:03.041Z,52.04
2022-08-08T22:14:17.465Z,52.19
2022-08-08T22:16:44.541Z,52.16
2022-08-08T22:19:15.537Z,52.56
2022-08-08T22:21:43.237Z,52.62
2022-08-08T22:24:14.733Z,52.57
2022-08-08T22:27:01.363Z,52.90
2022-08-08T22:29:59.395Z,53.21
2022-08-08T22:32:18.124Z,52.98
2022-08-08T22:34:50.725Z,53.31
2022-08-08T22:37:49.643Z,53.10
2022-08-08T22:40:07.490Z,53.37
2022-08-08T22:42:40.306Z,53.26
2022-08-08T22:45:12.308Z,53.40
2022-08-08T22:47:41.242Z,53.47
2022-08-08T22:50:09.739Z,53.65
2022-08-08T22:53:01.556Z,53.82
2022-08-08T22:55:59.110Z,53.81
2022-08-08T22:58:31.173Z,53.76
2022-08-08T23:01:00.699Z,54.02
2022-08-08T23:03:34.389Z,53.92
2022-08-08T23:06:16.218Z,54.21
2022-08-08T23:08:44.441Z,54.10
2022-08-08T23:11:22.054Z,54.19
2022-08-08T23:13:53.857Z,54.22
2022-08-08T23:16:40.542Z,54.24
2022-08-08T23:19:09.561Z,54.77
2022-08-08T23:21:38.097Z,54.41
2022-08-08T23:24:06.953Z,54.68
2022-08-08T23:26:34.313Z,54.80
2022-08-08T23:29:02.012Z,54.90
2022-08-08T23:31:29.031Z,54.91
2022-08-08T23:34:17.097Z,55.02
2022-08-08T23:36:44.817Z,54.75
2022-08-08T23:39:11.583Z,54.83
2022-08-08T23:41:45.793Z,54.69
2022-08-08T23:44:14.022Z,55.02
2022-08-08T23:49:03.888Z,55.05
2022-08-08T23:49:27.634Z,55.02
2022-08-08T23:52:06.791Z,54.99
2022-08-08T23:54:43.462Z,55.08
2022-08-08T23:57:38.668Z,55.24
